Time;durP1;ratioP1;P1;durP2;ratioP2;P2;SDS_P1;SDS_P2;PMS_P1;PMS_P2;Temp;Humidity;BMP_temperature;BMP_pressure;BME280_temperature;BME280_humidity;BME280_pressure;Samples;Min_cycle;Max_cycle;Signal;HPM_P1;HPM_P2
2023/06/05 00:02:01;;;;;;;3.00;2.13;;;17.90;83.40;;;;;;5068983;28;20263;-79
2023/06/05 00:04:28;;;;;;;4.53;2.50;;;17.80;84.20;;;;;;5068303;28;20208;-79
2023/06/05 00:06:56;;;;;;;3.20;2.47;;;17.80;85.00;;;;;;5067738;28;20717;-79
2023/06/05 00:09:23;;;;;;;2.60;2.10;;;17.70;85.60;;;;;;5067603;28;20208;-79
2023/06/05 00:11:50;;;;;;;3.07;2.33;;;17.70;86.20;;;;;;5067839;28;20207;-79
2023/06/05 00:14:17;;;;;;;3.47;2.53;;;17.70;86.30;;;;;;5067914;28;20237;-79
2023/06/05 00:16:44;;;;;;;3.30;2.30;;;17.60;86.60;;;;;;5052982;28;20291;-79
2023/06/05 00:19:12;;;;;;;2.67;2.20;;;17.60;86.90;;;;;;5048111;28;20303;-79
2023/06/05 00:21:39;;;;;;;4.20;2.40;;;17.60;87.10;;;;;;5062980;28;20585;-79
2023/06/05 00:24:07;;;;;;;3.10;2.23;;;17.50;87.20;;;;;;5067661;28;20219;-79
2023/06/05 00:26:34;;;;;;;2.30;2.10;;;17.50;86.90;;;;;;5067389;28;20235;-79
2023/06/05 00:29:01;;;;;;;3.77;2.33;;;17.50;86.90;;;;;;5067853;28;20219;-78
2023/06/05 00:31:28;;;;;;;3.67;2.10;;;17.50;87.00;;;;;;5063117;28;20196;-77
2023/06/05 00:33:55;;;;;;;2.27;2.00;;;17.40;86.80;;;;;;5056029;28;20614;-78
2023/06/05 00:36:23;;;;;;;2.27;2.07;;;17.40;86.70;;;;;;5067406;28;20247;-78
2023/06/05 00:38:50;;;;;;;3.03;2.13;;;17.40;86.80;;;;;;5058030;28;20201;-80
2023/06/05 00:41:17;;;;;;;5.27;2.10;;;17.40;86.60;;;;;;5047448;28;20208;-80
2023/06/05 00:43:44;;;;;;;2.30;2.10;;;17.30;86.50;;;;;;5053890;28;20286;-77
2023/06/05 00:46:12;;;;;;;4.07;2.30;;;17.30;86.60;;;;;;5067336;28;20294;-77
2023/06/05 00:48:40;;;;;;;3.87;1.90;;;17.30;86.80;;;;;;5048244;28;20235;-78
2023/06/05 00:51:10;;;;;;;2.10;2.00;;;17.30;87.00;;;;;;5059222;28;20298;-77
2023/06/05 00:53:40;;;;;;;2.90;2.20;;;17.20;87.10;;;;;;5067203;28;20233;-77
2023/06/05 00:56:07;;;;;;;2.43;2.00;;;17.20;87.60;;;;;;5066835;28;20737;-78
2023/06/05 00:58:34;;;;;;;3.63;2.47;;;17.20;87.60;;;;;;5066787;28;20699;-77
2023/06/05 01:01:03;;;;;;;2.60;2.10;;;17.20;87.60;;;;;;5066967;28;20317;-77
2023/06/05 01:03:33;;;;;;;2.53;1.87;;;17.10;87.60;;;;;;5067180;28;20199;-77
2023/06/05 01:06:03;;;;;;;2.30;1.80;;;17.10;87.70;;;;;;5067147;28;20195;-77
2023/06/05 01:08:38;;;;;;;2.93;2.00;;;17.10;87.70;;;;;;5070793;28;20317;-78
2023/06/05 01:11:14;;;;;;;2.07;1.93;;;17.10;87.80;;;;;;5071701;28;20218;-78
2023/06/05 01:13:51;;;;;;;2.10;1.90;;;17.00;87.90;;;;;;5066737;28;20338;-76
2023/06/05 01:16:19;;;;;;;2.40;1.70;;;17.00;88.20;;;;;;5066561;28;20598;-77
2023/06/05 01:18:46;;;;;;;2.00;1.87;;;17.00;88.50;;;;;;5066373;28;20257;-78
2023/06/05 01:21:16;;;;;;;2.33;2.00;;;16.90;88.40;;;;;;5067156;28;20662;-79
2023/06/05 01:23:45;;;;;;;3.93;1.90;;;16.90;88.30;;;;;;5063552;28;20235;-78
2023/06/05 01:26:21;;;;;;;2.20;1.97;;;16.90;88.30;;;;;;5066807;28;20795;-79
2023/06/05 01:28:50;;;;;;;2.23;1.70;;;16.80;88.90;;;;;;5052233;28;20227;-79
2023/06/05 01:31:21;;;;;;;3.70;2.00;;;16.80;87.90;;;;;;5046677;28;20242;-80
2023/06/05 01:33:56;;;;;;;2.87;1.93;;;16.80;87.80;;;;;;5060062;28;20226;-80
2023/06/05 01:36:24;;;;;;;2.30;2.10;;;16.80;87.40;;;;;;5048834;28;20204;-76
2023/06/05 01:38:54;;;;;;;3.33;1.63;;;16.70;87.30;;;;;;5046487;28;20236;-76
2023/06/05 01:41:22;;;;;;;2.10;1.90;;;16.70;87.30;;;;;;5061924;28;20208;-77
2023/06/05 01:43:49;;;;;;;1.80;1.70;;;16.70;87.10;;;;;;5046491;28;20291;-76
2023/06/05 01:46:20;;;;;;;2.13;1.40;;;16.70;87.00;;;;;;5046304;28;20695;-77
2023/06/05 01:48:47;;;;;;;1.60;1.50;;;16.70;87.30;;;;;;5046968;28;20343;-77
2023/06/05 01:51:14;;;;;;;2.13;1.97;;;16.70;87.40;;;;;;5050355;28;20253;-77
2023/06/05 01:53:41;;;;;;;1.87;1.73;;;16.60;87.50;;;;;;5064848;28;20203;-77
2023/06/05 01:56:10;;;;;;;1.80;1.70;;;16.60;87.70;;;;;;5066061;28;20302;-78
2023/06/05 01:58:38;;;;;;;2.17;1.97;;;16.60;87.80;;;;;;5053464;28;20222;-78
2023/06/05 02:01:05;;;;;;;2.60;1.73;;;16.50;87.30;;;;;;5064903;28;20587;-77
2023/06/05 02:03:32;;;;;;;1.90;1.70;;;16.50;87.30;;;;;;5059428;28;20283;-77
2023/06/05 02:05:59;;;;;;;1.90;1.80;;;16.50;87.60;;;;;;5059701;28;20632;-77
2023/06/05 02:08:28;;;;;;;1.80;1.70;;;16.50;87.60;;;;;;5059132;28;20227;-77
2023/06/05 02:10:55;;;;;;;2.83;1.60;;;16.40;87.50;;;;;;5046116;28;20208;-76
2023/06/05 02:13:24;;;;;;;1.70;1.60;;;16.40;87.40;;;;;;5046919;28;20234;-77
2023/06/05 02:15:56;;;;;;;2.77;1.40;;;16.40;87.20;;;;;;5046162;28;20208;-75
2023/06/05 02:18:27;;;;;;;1.67;1.57;;;16.40;87.50;;;;;;5048977;28;20191;-75
2023/06/05 02:20:56;;;;;;;2.93;1.70;;;16.30;88.50;;;;;;5065616;28;20211;-73
2023/06/05 02:23:23;;;;;;;2.13;2.00;;;16.30;87.80;;;;;;5062892;28;20199;-74
2023/06/05 02:25:50;;;;;;;2.27;1.70;;;16.30;88.00;;;;;;5065133;28;20207;-73
2023/06/05 02:28:17;;;;;;;1.73;1.63;;;16.30;88.30;;;;;;5061573;28;20315;-73
2023/06/05 02:30:45;;;;;;;2.57;1.87;;;16.30;88.20;;;;;;5063182;28;20231;-73
2023/06/05 02:33:12;;;;;;;1.83;1.73;;;16.20;88.20;;;;;;5051068;28;20206;-73
2023/06/05 02:35:40;;;;;;;1.83;1.70;;;16.20;88.50;;;;;;5046762;28;20204;-73
2023/06/05 02:38:07;;;;;;;3.17;1.80;;;16.20;88.60;;;;;;5060611;28;20724;-73
2023/06/05 02:40:34;;;;;;;1.97;1.70;;;16.20;88.70;;;;;;5042833;28;20218;-73
2023/06/05 02:43:01;;;;;;;2.43;1.80;;;16.10;88.90;;;;;;5050465;28;20242;-74
2023/06/05 02:45:28;;;;;;;2.47;2.00;;;16.10;89.10;;;;;;5062921;28;20199;-73
2023/06/05 02:47:56;;;;;;;2.43;1.83;;;16.10;89.30;;;;;;5061863;28;20844;-73
2023/06/05 02:50:23;;;;;;;2.27;1.90;;;16.00;89.40;;;;;;5063906;28;20246;-74
2023/06/05 02:52:50;;;;;;;2.33;2.13;;;16.00;89.60;;;;;;5057633;28;20847;-73
2023/06/05 02:55:17;;;;;;;1.97;1.63;;;16.00;89.60;;;;;;5062452;28;20856;-74
2023/06/05 02:57:44;;;;;;;4.10;1.90;;;16.00;89.80;;;;;;5064979;28;20211;-77
2023/06/05 03:00:15;;;;;;;5.10;1.97;;;16.00;89.90;;;;;;5051581;28;20354;-75
2023/06/05 03:02:48;;;;;;;6.73;1.70;;;15.90;90.00;;;;;;5066606;28;20204;-75
2023/06/05 03:05:18;;;;;;;3.77;2.00;;;15.90;90.00;;;;;;5067783;28;20211;-75
2023/06/05 03:07:45;;;;;;;7.37;2.03;;;15.90;90.00;;;;;;5068063;28;20216;-76
2023/06/05 03:10:12;;;;;;;2.60;1.70;;;15.90;90.10;;;;;;5069174;28;20207;-76
2023/06/05 03:12:39;;;;;;;4.03;1.93;;;15.90;90.20;;;;;;5068415;28;20203;-77
2023/06/05 03:15:10;;;;;;;1.93;1.70;;;15.80;90.40;;;;;;5068144;28;21098;-76
2023/06/05 03:17:37;;;;;;;3.23;2.03;;;15.80;90.40;;;;;;5069244;28;20211;-76
2023/06/05 03:20:06;;;;;;;2.93;1.80;;;15.80;90.50;;;;;;5069073;28;20238;-76
2023/06/05 03:22:35;;;;;;;1.90;1.77;;;15.80;90.60;;;;;;5069144;28;20204;-76
2023/06/05 03:25:01;;;;;;;2.40;2.20;;;15.80;90.70;;;;;;5069342;28;20307;-76
2023/06/05 03:27:28;;;;;;;2.80;1.93;;;15.80;90.80;;;;;;5068814;28;20207;-76
2023/06/05 03:29:56;;;;;;;4.73;2.33;;;15.80;91.10;;;;;;5068787;28;20632;-77
2023/06/05 03:32:23;;;;;;;4.57;2.03;;;15.70;91.30;;;;;;5069035;28;20306;-76
2023/06/05 03:34:50;;;;;;;4.13;2.13;;;15.70;91.50;;;;;;5068920;28;20295;-76
2023/06/05 03:37:17;;;;;;;3.40;2.30;;;15.70;91.70;;;;;;5068744;28;20685;-76
2023/06/05 03:39:45;;;;;;;2.20;1.93;;;15.70;91.70;;;;;;5068456;28;20212;-76
2023/06/05 03:42:12;;;;;;;2.00;1.90;;;15.70;91.80;;;;;;5068274;28;20231;-76
2023/06/05 03:44:39;;;;;;;3.00;2.27;;;15.60;91.90;;;;;;5068123;28;20265;-77
2023/06/05 03:47:07;;;;;;;4.90;2.33;;;15.60;92.00;;;;;;5068718;28;20227;-76
2023/06/05 03:49:35;;;;;;;4.50;2.63;;;15.60;92.20;;;;;;5067945;28;20246;-76
2023/06/05 03:52:02;;;;;;;4.27;2.00;;;15.60;92.30;;;;;;5068175;28;20305;-76
2023/06/05 03:54:32;;;;;;;4.77;2.40;;;15.60;92.60;;;;;;5068119;28;20310;-76
2023/06/05 03:57:02;;;;;;;6.83;2.40;;;15.60;92.80;;;;;;5069575;28;20284;-76
2023/06/05 03:59:29;;;;;;;5.43;2.10;;;15.60;92.90;;;;;;5076345;28;20211;-76
2023/06/05 04:01:56;;;;;;;3.87;2.13;;;15.60;93.10;;;;;;5068643;28;20199;-76
2023/06/05 04:04:23;;;;;;;5.53;2.10;;;15.60;93.10;;;;;;5068038;28;20235;-76
2023/06/05 04:06:51;;;;;;;4.80;2.20;;;15.70;93.10;;;;;;5068169;28;20295;-77
2023/06/05 04:09:18;;;;;;;4.60;2.13;;;15.60;93.00;;;;;;5067973;28;20231;-76
2023/06/05 04:11:45;;;;;;;3.00;2.40;;;15.60;93.40;;;;;;5067942;28;20333;-77
2023/06/05 04:14:14;;;;;;;5.37;2.30;;;15.70;93.10;;;;;;5068072;28;20235;-76
2023/06/05 04:16:42;;;;;;;2.37;2.10;;;15.60;93.00;;;;;;5067585;28;20729;-76
2023/06/05 04:19:10;;;;;;;5.30;2.10;;;15.70;93.00;;;;;;5068057;28;20211;-77
2023/06/05 04:21:38;;;;;;;4.63;2.17;;;15.70;93.00;;;;;;5067227;28;20211;-77
2023/06/05 04:24:07;;;;;;;4.80;2.17;;;15.80;93.10;;;;;;5054802;28;20211;-77
2023/06/05 04:26:34;;;;;;;4.80;2.10;;;15.80;93.10;;;;;;5047659;28;20207;-76
2023/06/05 04:29:02;;;;;;;2.33;2.10;;;15.90;93.00;;;;;;5057030;28;20238;-76
2023/06/05 04:31:32;;;;;;;4.73;2.03;;;15.90;92.80;;;;;;5068639;28;20207;-76
2023/06/05 04:33:59;;;;;;;4.57;2.23;;;16.00;92.80;;;;;;5068692;28;20215;-77
2023/06/05 04:36:28;;;;;;;4.97;2.13;;;16.00;92.80;;;;;;5067855;28;20212;-76
2023/06/05 04:38:55;;;;;;;5.10;2.37;;;16.00;92.60;;;;;;5067578;28;20298;-76
2023/06/05 04:41:22;;;;;;;6.57;2.57;;;16.00;92.60;;;;;;5067447;28;20212;-77
2023/06/05 04:43:50;;;;;;;11.57;2.50;;;16.10;92.50;;;;;;5067644;28;20294;-76
2023/06/05 04:46:17;;;;;;;5.33;1.90;;;16.10;92.40;;;;;;5067362;28;20216;-76
2023/06/05 04:48:46;;;;;;;5.20;2.33;;;16.10;92.30;;;;;;5067316;28;20258;-76
2023/06/05 04:51:13;;;;;;;4.43;2.00;;;16.10;92.10;;;;;;5067214;28;20214;-76
2023/06/05 04:53:41;;;;;;;5.73;2.80;;;16.10;91.90;;;;;;5063430;28;20245;-76
2023/06/05 04:56:09;;;;;;;7.47;2.10;;;16.10;91.90;;;;;;5061650;28;20211;-76
2023/06/05 04:58:36;;;;;;;2.20;2.00;;;16.20;91.80;;;;;;5067475;28;20582;-76
2023/06/05 05:01:06;;;;;;;4.20;2.07;;;16.20;91.70;;;;;;5066899;28;20218;-75
2023/06/05 05:03:33;;;;;;;1.93;1.73;;;16.20;92.00;;;;;;5067427;28;20574;-76
2023/06/05 05:06:01;;;;;;;4.90;2.00;;;16.20;91.80;;;;;;5067091;28;20207;-76
2023/06/05 05:08:28;;;;;;;6.13;2.17;;;16.20;91.80;;;;;;5067081;28;20718;-76
2023/06/05 05:10:55;;;;;;;3.23;2.00;;;16.20;92.00;;;;;;5066269;28;20729;-76
2023/06/05 05:13:22;;;;;;;3.27;2.27;;;16.30;92.30;;;;;;5066340;28;20709;-76
2023/06/05 05:15:52;;;;;;;4.03;2.30;;;16.30;91.90;;;;;;5066407;28;20717;-76
2023/06/05 05:18:19;;;;;;;4.33;2.10;;;16.30;91.80;;;;;;5066970;28;20233;-76
2023/06/05 05:20:46;;;;;;;4.07;2.27;;;16.40;91.80;;;;;;5066409;28;20295;-76
2023/06/05 05:23:15;;;;;;;3.00;2.40;;;16.50;91.80;;;;;;5066581;28;20290;-76
2023/06/05 05:25:42;;;;;;;3.17;2.20;;;16.50;91.70;;;;;;5065925;28;20208;-76
2023/06/05 05:28:09;;;;;;;5.27;2.50;;;16.50;91.70;;;;;;5066599;28;20203;-76
2023/06/05 05:30:36;;;;;;;10.20;2.37;;;16.60;91.60;;;;;;5066545;28;20212;-76
2023/06/05 05:33:03;;;;;;;10.30;2.50;;;16.60;91.60;;;;;;5066554;28;20242;-76
2023/06/05 05:35:31;;;;;;;4.30;2.60;;;16.60;91.40;;;;;;5066130;28;20709;-76
2023/06/05 05:37:58;;;;;;;1.87;1.77;;;16.60;91.40;;;;;;5066229;28;20821;-76
2023/06/05 05:40:26;;;;;;;5.00;2.03;;;16.70;91.40;;;;;;5066340;28;20213;-76
2023/06/05 05:42:53;;;;;;;4.43;2.00;;;16.70;91.70;;;;;;5065948;28;20246;-76
2023/06/05 05:45:20;;;;;;;4.57;2.10;;;16.80;91.50;;;;;;5065969;28;20226;-77
2023/06/05 05:47:47;;;;;;;23.57;3.37;;;16.90;91.30;;;;;;5065680;28;20930;-76
2023/06/05 05:50:14;;;;;;;4.57;2.90;;;16.90;91.20;;;;;;5068735;28;20273;-76
2023/06/05 05:52:42;;;;;;;3.13;2.17;;;17.00;91.20;;;;;;5066123;28;20247;-76
2023/06/05 05:55:10;;;;;;;7.93;2.17;;;17.00;91.30;;;;;;5066049;28;20279;-75
2023/06/05 05:57:39;;;;;;;5.03;2.60;;;17.10;91.50;;;;;;5066002;28;20257;-76
2023/06/05 06:00:10;;;;;;;4.43;2.00;;;17.10;91.50;;;;;;5065922;28;20594;-76
2023/06/05 06:02:37;;;;;;;10.20;2.77;;;17.10;91.50;;;;;;5066299;28;20554;-75
2023/06/05 06:05:04;;;;;;;6.23;2.73;;;17.20;91.50;;;;;;5066395;28;20260;-76
2023/06/05 06:07:32;;;;;;;3.23;2.07;;;17.20;91.30;;;;;;5066214;28;20200;-76
2023/06/05 06:09:59;;;;;;;2.20;1.90;;;17.30;91.20;;;;;;5065948;28;20266;-76
2023/06/05 06:12:27;;;;;;;3.17;1.97;;;17.40;91.20;;;;;;5065896;28;20294;-76
2023/06/05 06:14:55;;;;;;;4.30;2.00;;;17.40;91.20;;;;;;5065765;28;20210;-76
2023/06/05 06:17:23;;;;;;;5.30;2.00;;;17.50;91.20;;;;;;5066071;28;20242;-76
2023/06/05 06:19:50;;;;;;;6.80;2.40;;;17.50;91.30;;;;;;5065790;28;20211;-76
2023/06/05 06:22:17;;;;;;;4.23;2.23;;;17.60;91.20;;;;;;5065950;28;20500;-76
2023/06/05 06:24:44;;;;;;;10.20;2.37;;;17.60;91.30;;;;;;5065291;28;20235;-76
2023/06/05 06:27:12;;;;;;;4.83;2.10;;;17.70;91.40;;;;;;5065982;28;20297;-76
2023/06/05 06:29:47;;;;;;;2.90;1.90;;;17.70;91.20;;;;;;5065920;28;20227;-76
2023/06/05 06:32:15;;;;;;;4.20;1.80;;;17.80;90.90;;;;;;5065800;28;20291;-76
2023/06/05 06:34:44;;;;;;;6.67;1.73;;;17.80;90.50;;;;;;5065542;28;20207;-77
2023/06/05 06:37:11;;;;;;;3.37;1.67;;;17.90;90.20;;;;;;5067157;28;20211;-76
2023/06/05 06:39:39;;;;;;;2.57;1.77;;;17.90;89.90;;;;;;5070018;28;20211;-76
2023/06/05 06:42:06;;;;;;;1.83;1.63;;;18.00;89.30;;;;;;5069768;28;20227;-76
2023/06/05 06:44:33;;;;;;;2.67;1.40;;;18.00;88.50;;;;;;5069495;28;20843;-76
2023/06/05 06:47:00;;;;;;;4.17;2.17;;;18.00;87.90;;;;;;5069282;28;20298;-76
2023/06/05 06:49:28;;;;;;;3.73;1.90;;;18.10;87.00;;;;;;5070516;28;20270;-77
2023/06/05 06:51:55;;;;;;;3.10;1.70;;;18.10;86.70;;;;;;5069496;28;20471;-76
2023/06/05 06:54:22;;;;;;;1.40;1.33;;;18.20;86.90;;;;;;5070012;28;20215;-76
2023/06/05 06:56:49;;;;;;;4.47;1.70;;;18.30;86.70;;;;;;5069460;28;20214;-77
2023/06/05 06:59:16;;;;;;;4.20;1.73;;;18.30;86.30;;;;;;5069861;28;20215;-76
2023/06/05 07:01:46;;;;;;;4.00;1.30;;;18.40;86.00;;;;;;5069650;28;20238;-77
2023/06/05 07:04:16;;;;;;;6.83;1.63;;;18.40;85.70;;;;;;5069841;28;20204;-77
2023/06/05 07:06:45;;;;;;;3.87;1.50;;;18.40;86.00;;;;;;5069864;28;20203;-77
2023/06/05 07:09:12;;;;;;;6.40;1.77;;;18.40;85.90;;;;;;5069076;28;20226;-77
2023/06/05 07:11:39;;;;;;;7.73;2.10;;;18.50;85.50;;;;;;5069713;28;20300;-76
2023/06/05 07:14:07;;;;;;;2.60;1.80;;;18.60;85.00;;;;;;5069840;28;20223;-77
2023/06/05 07:16:34;;;;;;;2.60;1.40;;;18.60;84.60;;;;;;5069269;28;20247;-76
2023/06/05 07:19:01;;;;;;;3.77;1.60;;;18.60;84.30;;;;;;5069650;28;20294;-77
2023/06/05 07:21:28;;;;;;;3.97;2.10;;;18.60;83.70;;;;;;5069551;28;20299;-76
2023/06/05 07:23:56;;;;;;;3.73;1.90;;;18.60;84.00;;;;;;5068757;28;20207;-77
2023/06/05 07:26:24;;;;;;;1.67;1.53;;;18.70;83.50;;;;;;5069317;28;20295;-76
2023/06/05 07:28:51;;;;;;;2.13;1.60;;;18.70;81.80;;;;;;5069162;28;20259;-77
2023/06/05 07:31:18;;;;;;;2.77;2.57;;;18.70;81.00;;;;;;5068714;28;20867;-77
2023/06/05 07:33:45;;;;;;;4.40;2.00;;;18.80;80.80;;;;;;5068946;28;20231;-76
2023/06/05 07:36:12;;;;;;;3.13;1.70;;;18.80;80.70;;;;;;5069068;28;20214;-77
2023/06/05 07:38:39;;;;;;;2.03;1.30;;;18.90;80.70;;;;;;5068932;28;20231;-77
2023/06/05 07:41:11;;;;;;;2.57;1.67;;;18.90;81.30;;;;;;5068830;28;20204;-76
2023/06/05 07:43:39;;;;;;;4.53;1.47;;;18.90;80.90;;;;;;5078554;28;20290;-77
2023/06/05 07:46:08;;;;;;;2.50;1.80;;;18.90;80.60;;;;;;5068827;28;20211;-76
2023/06/05 07:48:36;;;;;;;2.37;1.57;;;18.90;81.00;;;;;;5068378;28;20574;-76
2023/06/05 07:51:03;;;;;;;2.60;1.73;;;19.00;80.90;;;;;;5069184;28;20234;-77
2023/06/05 07:53:29;;;;;;;8.80;2.03;;;19.00;80.30;;;;;;5068485;28;20206;-76
2023/06/05 07:55:57;;;;;;;1.50;1.40;;;19.10;78.60;;;;;;5068214;28;20264;-77
2023/06/05 07:58:27;;;;;;;3.57;1.80;;;19.10;79.10;;;;;;5068297;28;20218;-76
2023/06/05 08:00:54;;;;;;;16.63;3.30;;;19.20;79.30;;;;;;5068248;28;20481;-76
2023/06/05 08:03:21;;;;;;;14.30;3.23;;;19.30;77.20;;;;;;5068457;28;20203;-76
2023/06/05 08:05:48;;;;;;;8.73;7.13;;;19.30;77.40;;;;;;5067722;28;20227;-76
2023/06/05 08:08:15;;;;;;;6.53;2.80;;;19.30;76.70;;;;;;5068342;28;20268;-76
2023/06/05 08:10:42;;;;;;;2.57;1.93;;;19.40;76.30;;;;;;5067615;28;20231;-76
2023/06/05 08:13:09;;;;;;;7.73;1.87;;;19.40;76.80;;;;;;5066613;28;20266;-77
2023/06/05 08:15:38;;;;;;;3.30;1.80;;;19.40;77.50;;;;;;5047914;28;20303;-76
2023/06/05 08:18:05;;;;;;;3.90;2.10;;;19.50;78.40;;;;;;5048285;28;20212;-77
2023/06/05 08:20:32;;;;;;;2.70;1.90;;;19.60;76.80;;;;;;5048422;28;20266;-77
2023/06/05 08:22:58;;;;;;;4.60;2.10;;;19.70;76.30;;;;;;5048139;28;20298;-76
2023/06/05 08:25:26;;;;;;;4.73;1.50;;;19.70;76.40;;;;;;5055640;28;20675;-77
2023/06/05 08:27:53;;;;;;;4.47;1.60;;;19.70;76.40;;;;;;5067908;28;20214;-76
2023/06/05 08:30:20;;;;;;;2.20;1.73;;;19.90;73.50;;;;;;5067349;28;20780;-76
2023/06/05 08:32:48;;;;;;;6.07;1.70;;;20.10;72.50;;;;;;5068038;28;20455;-77
2023/06/05 08:35:16;;;;;;;3.40;1.90;;;20.10;73.80;;;;;;5068305;28;20676;-77
2023/06/05 08:37:43;;;;;;;3.92;1.95;;;20.10;73.90;;;;;;5067979;28;20269;-76
2023/06/05 08:40:12;;;;;;;2.33;1.73;;;20.10;74.30;;;;;;5067449;28;20217;-77
2023/06/05 08:42:40;;;;;;;2.03;1.83;;;20.10;74.10;;;;;;5067058;28;20718;-77
2023/06/05 08:45:09;;;;;;;2.85;1.48;;;20.20;74.30;;;;;;5067717;28;20214;-77
2023/06/05 08:47:38;;;;;;;3.00;1.67;;;20.30;74.20;;;;;;5068009;28;20207;-76
2023/06/05 08:50:08;;;;;;;2.53;1.70;;;20.40;74.50;;;;;;5067744;28;20239;-77
2023/06/05 08:52:39;;;;;;;3.30;1.65;;;20.40;75.30;;;;;;5068301;28;20207;-76
2023/06/05 08:55:07;;;;;;;2.28;1.50;;;20.40;74.70;;;;;;5067811;28;20264;-77
2023/06/05 08:57:37;;;;;;;2.65;1.50;;;20.60;74.20;;;;;;5067445;28;20214;-76
2023/06/05 09:00:07;;;;;;;5.10;1.67;;;20.60;74.40;;;;;;5066390;28;20207;-76
2023/06/05 09:02:34;;;;;;;2.72;1.13;;;20.80;72.40;;;;;;5067719;28;20200;-76
2023/06/05 09:05:02;;;;;;;3.55;1.90;;;20.90;72.80;;;;;;5067406;28;20567;-76
2023/06/05 09:07:31;;;;;;;3.97;1.60;;;20.90;72.40;;;;;;5067226;28;20330;-76
2023/06/05 09:09:58;;;;;;;2.70;1.50;;;21.00;71.10;;;;;;5067278;28;20249;-76
2023/06/05 09:12:25;;;;;;;2.53;1.60;;;21.00;71.10;;;;;;5067016;28;20721;-76
2023/06/05 09:14:52;;;;;;;2.72;1.50;;;21.10;70.20;;;;;;5067006;28;20284;-77
2023/06/05 09:17:22;;;;;;;1.95;1.40;;;21.20;70.40;;;;;;5067395;28;21006;-76
2023/06/05 09:19:50;;;;;;;4.45;1.67;;;21.10;70.90;;;;;;5067123;28;20207;-77
2023/06/05 09:22:32;;;;;;;1.77;1.55;;;21.20;71.20;;;;;;5067450;28;20203;-76
2023/06/05 09:25:02;;;;;;;5.03;1.90;;;21.40;70.50;;;;;;5047162;28;20964;-76
2023/06/05 09:27:29;;;;;;;60.88;8.00;;;21.50;69.80;;;;;;5046896;28;20671;-77
2023/06/05 09:30:04;;;;;;;6.57;2.20;;;21.60;70.70;;;;;;5055678;28;20258;-76
2023/06/05 09:32:32;;;;;;;7.43;2.05;;;21.80;68.40;;;;;;5066434;28;20199;-76
2023/06/05 09:35:00;;;;;;;2.17;1.80;;;21.90;69.20;;;;;;5071889;28;20218;-76
2023/06/05 09:37:35;;;;;;;4.63;1.70;;;22.00;68.20;;;;;;5070776;28;20689;-76
2023/06/05 09:40:04;;;;;;;3.22;1.80;;;22.00;68.40;;;;;;5066823;28;20195;-76
2023/06/05 09:42:34;;;;;;;3.90;1.73;;;22.00;68.80;;;;;;5066117;28;20289;-76
2023/06/05 09:45:04;;;;;;;2.97;1.67;;;21.90;67.30;;;;;;5066095;28;20211;-76
2023/06/05 09:47:32;;;;;;;2.35;1.35;;;21.90;67.70;;;;;;5066182;28;20252;-76
2023/06/05 09:49:59;;;;;;;2.17;1.73;;;21.90;68.00;;;;;;5066529;28;20231;-76
2023/06/05 09:52:26;;;;;;;3.80;1.80;;;22.00;69.00;;;;;;5066688;28;20211;-76
2023/06/05 09:54:56;;;;;;;3.00;1.50;;;22.10;68.30;;;;;;5066414;28;20235;-76
2023/06/05 09:57:26;;;;;;;2.10;1.63;;;22.30;67.10;;;;;;5066225;28;20203;-76
2023/06/05 09:59:54;;;;;;;2.22;1.55;;;22.50;67.90;;;;;;5065720;28;20214;-76
2023/06/05 10:02:24;;;;;;;2.35;1.67;;;22.50;67.80;;;;;;5066342;28;20322;-76
2023/06/05 10:04:57;;;;;;;5.68;2.10;;;22.60;68.00;;;;;;5065814;28;20207;-76
2023/06/05 10:07:25;;;;;;;6.80;1.70;;;22.60;66.00;;;;;;5066127;28;20299;-76
2023/06/05 10:09:52;;;;;;;4.10;1.73;;;22.70;67.00;;;;;;5066083;28;20637;-76
2023/06/05 10:12:20;;;;;;;4.35;2.03;;;22.80;68.10;;;;;;5065818;28;20314;-76
2023/06/05 10:14:49;;;;;;;3.60;1.67;;;22.80;68.60;;;;;;5065555;28;20238;-76
2023/06/05 10:17:17;;;;;;;1.80;1.70;;;22.90;66.60;;;;;;5066156;28;20264;-76
2023/06/05 10:19:44;;;;;;;4.32;2.08;;;22.90;66.00;;;;;;5065617;28;20634;-76
2023/06/05 10:22:12;;;;;;;4.82;1.98;;;23.00;67.60;;;;;;5065804;28;20293;-76
2023/06/05 10:24:43;;;;;;;7.38;2.38;;;23.00;67.00;;;;;;5047872;28;20212;-76
2023/06/05 10:27:44;;;;;;;2.90;1.73;;;23.20;65.70;;;;;;5045663;28;20569;-76
2023/06/05 10:30:43;;;;;;;2.70;1.80;;;23.30;65.10;;;;;;5057012;28;20251;-76
2023/06/05 10:33:26;;;;;;;3.00;1.77;;;23.50;66.60;;;;;;5057622;28;20660;-76
2023/06/05 10:36:01;;;;;;;4.35;1.83;;;23.70;66.90;;;;;;5065639;28;20722;-76
2023/06/05 10:38:29;;;;;;;4.45;2.10;;;23.90;64.70;;;;;;5065629;28;21033;-76
2023/06/05 10:40:58;;;;;;;2.63;2.05;;;24.00;64.60;;;;;;5065517;28;20298;-76
2023/06/05 10:43:29;;;;;;;7.10;1.95;;;24.10;64.30;;;;;;5065383;28;20239;-76
2023/06/05 10:45:59;;;;;;;2.88;2.03;;;24.20;64.50;;;;;;5065423;28;20192;-76
2023/06/05 10:48:59;;;;;;;3.13;1.67;;;24.30;63.80;;;;;;5065297;28;20727;-76
2023/06/05 10:51:33;;;;;;;1.63;1.50;;;24.40;62.50;;;;;;5060243;28;20310;-76
2023/06/05 10:54:01;;;;;;;2.75;1.77;;;24.60;63.20;;;;;;5065489;28;20199;-76
2023/06/05 10:56:56;;;;;;;2.80;2.00;;;24.70;62.60;;;;;;5065296;28;20290;-77
2023/06/05 10:59:25;;;;;;;5.75;2.40;;;24.80;62.30;;;;;;5065035;28;20900;-76
2023/06/05 11:02:25;;;;;;;6.22;2.13;;;25.00;62.30;;;;;;5064694;28;20985;-76
2023/06/05 11:05:12;;;;;;;2.50;1.80;;;25.00;61.40;;;;;;5064630;28;20207;-75
2023/06/05 11:07:41;;;;;;;4.32;2.10;;;25.20;60.00;;;;;;5060257;28;20595;-76
2023/06/05 11:10:15;;;;;;;5.57;1.92;;;25.20;59.80;;;;;;5065080;28;20908;-76
2023/06/05 11:13:09;;;;;;;3.40;2.00;;;25.20;60.60;;;;;;5065312;28;20300;-76
2023/06/05 11:15:46;;;;;;;2.53;1.70;;;25.40;60.70;;;;;;5028718;28;20760;-75
2023/06/05 11:18:34;;;;;;;2.65;2.08;;;25.40;60.00;;;;;;5065341;28;20191;-76
2023/06/05 11:21:02;;;;;;;5.78;1.70;;;25.60;61.10;;;;;;5065705;28;20565;-76
2023/06/05 11:23:29;;;;;;;3.53;1.80;;;25.70;59.80;;;;;;5066700;28;20208;-76
2023/06/05 11:26:38;;;;;;;2.97;1.80;;;25.80;60.40;;;;;;5069089;28;20210;-76
2023/06/05 11:29:15;;;;;;;2.70;1.60;;;25.80;58.90;;;;;;5068699;28;20215;-76
2023/06/05 11:31:44;;;;;;;3.92;1.88;;;25.90;59.80;;;;;;5068832;28;20226;-76
2023/06/05 11:34:15;;;;;;;3.35;2.42;;;25.90;58.70;;;;;;5069265;28;20252;-75
2023/06/05 11:36:42;;;;;;;3.13;2.05;;;26.10;59.10;;;;;;5068630;28;20337;-76
2023/06/05 11:39:10;;;;;;;2.97;1.90;;;26.30;59.60;;;;;;5068200;28;20275;-76
2023/06/05 11:41:45;;;;;;;2.63;2.08;;;26.40;59.00;;;;;;5068230;28;20243;-76
2023/06/05 11:44:12;;;;;;;3.58;1.77;;;26.60;58.90;;;;;;5068081;28;20694;-76
2023/06/05 11:46:40;;;;;;;4.50;2.03;;;26.50;57.40;;;;;;5068147;28;20321;-76
2023/06/05 11:49:07;;;;;;;3.42;2.03;;;26.70;58.50;;;;;;5068148;28;20301;-76
2023/06/05 11:51:36;;;;;;;3.78;2.10;;;26.80;58.90;;;;;;5068053;28;20304;-76
2023/06/05 11:54:05;;;;;;;3.05;2.13;;;26.90;59.40;;;;;;5067870;28;20702;-76
2023/06/05 11:56:33;;;;;;;2.00;1.90;;;27.00;58.80;;;;;;5068425;28;20210;-76
2023/06/05 11:59:00;;;;;;;2.58;2.00;;;27.10;57.80;;;;;;5068349;28;20207;-76
2023/06/05 12:01:31;;;;;;;1.90;1.80;;;27.20;58.60;;;;;;5067773;28;20290;-76
2023/06/05 12:04:04;;;;;;;4.32;2.00;;;27.40;59.40;;;;;;5068089;28;20198;-75
2023/06/05 12:06:32;;;;;;;2.40;2.20;;;27.50;58.30;;;;;;5067429;28;20245;-76
2023/06/05 12:09:11;;;;;;;2.03;1.90;;;27.60;58.80;;;;;;5067449;28;20222;-76
2023/06/05 12:11:38;;;;;;;21.90;3.03;;;27.70;57.80;;;;;;5067233;28;20654;-76
2023/06/05 12:14:06;;;;;;;4.43;1.92;;;27.70;57.30;;;;;;5067881;28;20701;-76
2023/06/05 12:16:34;;;;;;;5.82;1.90;;;27.90;58.30;;;;;;5068051;28;20630;-76
2023/06/05 12:19:01;;;;;;;2.60;2.10;;;28.00;57.90;;;;;;5067867;28;20736;-75
2023/06/05 12:21:29;;;;;;;3.83;2.30;;;28.10;57.30;;;;;;5067843;28;20203;-75
2023/06/05 12:24:04;;;;;;;2.25;2.10;;;28.30;55.50;;;;;;5056025;28;20236;-76
2023/06/05 12:26:51;;;;;;;8.45;2.40;;;28.30;56.10;;;;;;5066050;28;20219;-76
2023/06/05 12:29:18;;;;;;;7.88;2.60;;;28.50;57.20;;;;;;5067852;28;20665;-75
2023/06/05 12:31:45;;;;;;;4.00;2.00;;;28.60;55.80;;;;;;5067143;28;20243;-75
2023/06/05 12:34:12;;;;;;;4.15;2.47;;;28.80;55.70;;;;;;5066982;28;20648;-75
2023/06/05 12:36:40;;;;;;;4.75;1.95;;;28.80;54.30;;;;;;5066761;28;20306;-75
2023/06/05 12:39:08;;;;;;;2.08;1.83;;;28.40;52.80;;;;;;5067048;28;20690;-75
2023/06/05 12:41:37;;;;;;;4.32;2.17;;;28.50;53.80;;;;;;5067045;28;20246;-76
2023/06/05 12:44:06;;;;;;;2.47;2.25;;;28.70;54.80;;;;;;5067283;28;20219;-75
2023/06/05 12:46:33;;;;;;;4.30;1.90;;;28.80;55.30;;;;;;5066996;28;20286;-73
2023/06/05 12:49:00;;;;;;;3.58;2.10;;;29.00;54.70;;;;;;5067305;28;20310;-73
2023/06/05 12:51:28;;;;;;;4.47;2.15;;;29.00;54.00;;;;;;5067389;28;20322;-73
2023/06/05 12:53:55;;;;;;;3.97;2.40;;;29.20;53.70;;;;;;5066449;28;20239;-73
2023/06/05 12:56:24;;;;;;;2.20;2.08;;;29.30;52.90;;;;;;5056309;28;20215;-74